sensor_id;sensor_type;location;lat;lon;timestamp;temperature;humidity
51500;DHT22;39101;53.478;6.158;2024-03-29T00:02:10;8.90;99.90
51500;DHT22;39101;53.478;6.158;2024-03-29T00:04:36;8.90;99.90
51500;DHT22;39101;53.478;6.158;2024-03-29T00:07:01;8.90;99.90
51500;DHT22;39101;53.478;6.158;2024-03-29T00:09:27;8.90;99.90
51500;DHT22;39101;53.478;6.158;2024-03-29T00:11:53;9.00;99.90
51500;DHT22;39101;53.478;6.158;2024-03-29T00:14:22;8.90;99.90
51500;DHT22;39101;53.478;6.158;2024-03-29T00:16:48;9.00;99.90
51500;DHT22;39101;53.478;6.158;2024-03-29T00:19:13;9.00;99.90
51500;DHT22;39101;53.478;6.158;2024-03-29T00:21:41;8.90;99.90
51500;DHT22;39101;53.478;6.158;2024-03-29T00:24:07;8.90;99.90
51500;DHT22;39101;53.478;6.158;2024-03-29T00:26:33;8.90;99.90
51500;DHT22;39101;53.478;6.158;2024-03-29T00:28:58;8.80;99.90
51500;DHT22;39101;53.478;6.158;2024-03-29T00:31:24;8.80;99.90
51500;DHT22;39101;53.478;6.158;2024-03-29T00:33:51;8.80;99.90
51500;DHT22;39101;53.478;6.158;2024-03-29T00:36:17;8.90;99.90
51500;DHT22;39101;53.478;6.158;2024-03-29T00:38:42;8.90;99.90
51500;DHT22;39101;53.478;6.158;2024-03-29T00:41:08;8.90;99.90
51500;DHT22;39101;53.478;6.158;2024-03-29T00:43:34;8.90;99.90
51500;DHT22;39101;53.478;6.158;2024-03-29T00:45:59;8.80;99.90
51500;DHT22;39101;53.478;6.158;2024-03-29T00:48:26;8.80;99.90
51500;DHT22;39101;53.478;6.158;2024-03-29T00:50:52;8.80;99.90
51500;DHT22;39101;53.478;6.158;2024-03-29T00:53:21;8.80;99.90
51500;DHT22;39101;53.478;6.158;2024-03-29T00:55:47;8.80;99.90
51500;DHT22;39101;53.478;6.158;2024-03-29T00:58:12;8.70;99.90
51500;DHT22;39101;53.478;6.158;2024-03-29T01:00:38;8.70;99.90
51500;DHT22;39101;53.478;6.158;2024-03-29T01:03:05;8.70;99.90
51500;DHT22;39101;53.478;6.158;2024-03-29T01:05:31;8.80;99.90
51500;DHT22;39101;53.478;6.158;2024-03-29T01:07:56;8.70;99.90
51500;DHT22;39101;53.478;6.158;2024-03-29T01:10:22;8.70;99.90
51500;DHT22;39101;53.478;6.158;2024-03-29T01:12:48;8.70;99.90
51500;DHT22;39101;53.478;6.158;2024-03-29T01:15:15;8.70;99.90
51500;DHT22;39101;53.478;6.158;2024-03-29T01:17:42;8.70;99.90
51500;DHT22;39101;53.478;6.158;2024-03-29T01:20:08;8.60;99.90
51500;DHT22;39101;53.478;6.158;2024-03-29T01:22:34;8.60;99.90
51500;DHT22;39101;53.478;6.158;2024-03-29T01:24:59;8.60;99.90
51500;DHT22;39101;53.478;6.158;2024-03-29T01:27:26;8.70;99.90
51500;DHT22;39101;53.478;6.158;2024-03-29T01:29:52;8.70;99.90
51500;DHT22;39101;53.478;6.158;2024-03-29T01:32:19;8.70;99.90
51500;DHT22;39101;53.478;6.158;2024-03-29T01:34:44;8.70;99.90
51500;DHT22;39101;53.478;6.158;2024-03-29T01:37:10;8.70;99.90
51500;DHT22;39101;53.478;6.158;2024-03-29T01:39:37;8.70;99.90
51500;DHT22;39101;53.478;6.158;2024-03-29T01:42:03;8.70;99.90
51500;DHT22;39101;53.478;6.158;2024-03-29T01:44:29;8.70;99.90
51500;DHT22;39101;53.478;6.158;2024-03-29T01:46:54;8.70;99.90
51500;DHT22;39101;53.478;6.158;2024-03-29T01:49:22;8.70;99.90
51500;DHT22;39101;53.478;6.158;2024-03-29T01:51:48;8.60;99.90
51500;DHT22;39101;53.478;6.158;2024-03-29T01:54:16;8.70;99.90
51500;DHT22;39101;53.478;6.158;2024-03-29T01:56:44;8.60;99.90
51500;DHT22;39101;53.478;6.158;2024-03-29T01:59:14;8.50;99.90
51500;DHT22;39101;53.478;6.158;2024-03-29T02:01:45;8.50;99.90
51500;DHT22;39101;53.478;6.158;2024-03-29T02:04:11;8.50;99.90
51500;DHT22;39101;53.478;6.158;2024-03-29T02:06:38;8.50;99.90
51500;DHT22;39101;53.478;6.158;2024-03-29T02:09:04;8.40;99.90
51500;DHT22;39101;53.478;6.158;2024-03-29T02:11:29;8.40;99.90
51500;DHT22;39101;53.478;6.158;2024-03-29T02:13:56;8.30;99.90
51500;DHT22;39101;53.478;6.158;2024-03-29T02:16:22;8.30;99.90
51500;DHT22;39101;53.478;6.158;2024-03-29T02:18:47;8.20;99.90
51500;DHT22;39101;53.478;6.158;2024-03-29T02:21:13;8.20;99.90
51500;DHT22;39101;53.478;6.158;2024-03-29T02:23:43;8.10;99.90
51500;DHT22;39101;53.478;6.158;2024-03-29T02:26:09;8.10;99.90
51500;DHT22;39101;53.478;6.158;2024-03-29T02:28:35;8.10;99.90
51500;DHT22;39101;53.478;6.158;2024-03-29T02:31:01;8.10;99.90
51500;DHT22;39101;53.478;6.158;2024-03-29T02:33:28;8.00;99.90
51500;DHT22;39101;53.478;6.158;2024-03-29T02:35:54;8.00;99.90
51500;DHT22;39101;53.478;6.158;2024-03-29T02:38:19;8.00;99.90
51500;DHT22;39101;53.478;6.158;2024-03-29T02:40:45;8.10;99.90
51500;DHT22;39101;53.478;6.158;2024-03-29T02:43:11;8.10;99.90
51500;DHT22;39101;53.478;6.158;2024-03-29T02:45:38;8.10;99.90
51500;DHT22;39101;53.478;6.158;2024-03-29T02:48:04;8.10;99.90
51500;DHT22;39101;53.478;6.158;2024-03-29T02:50:30;8.10;99.90
51500;DHT22;39101;53.478;6.158;2024-03-29T02:52:56;8.20;99.90
51500;DHT22;39101;53.478;6.158;2024-03-29T02:55:21;8.20;99.90
51500;DHT22;39101;53.478;6.158;2024-03-29T02:57:47;8.10;99.90
51500;DHT22;39101;53.478;6.158;2024-03-29T03:00:13;8.10;99.90
51500;DHT22;39101;53.478;6.158;2024-03-29T03:02:39;8.00;99.90
51500;DHT22;39101;53.478;6.158;2024-03-29T03:05:06;8.00;99.90
51500;DHT22;39101;53.478;6.158;2024-03-29T03:07:32;7.90;99.90
51500;DHT22;39101;53.478;6.158;2024-03-29T03:10:16;8.00;99.90
51500;DHT22;39101;53.478;6.158;2024-03-29T03:13:04;7.90;99.90
51500;DHT22;39101;53.478;6.158;2024-03-29T03:15:30;7.90;99.90
51500;DHT22;39101;53.478;6.158;2024-03-29T03:17:55;7.90;99.90
51500;DHT22;39101;53.478;6.158;2024-03-29T03:20:30;7.90;99.90
51500;DHT22;39101;53.478;6.158;2024-03-29T03:22:57;7.90;99.90
51500;DHT22;39101;53.478;6.158;2024-03-29T03:25:26;7.90;99.90
51500;DHT22;39101;53.478;6.158;2024-03-29T03:27:54;8.00;99.90
51500;DHT22;39101;53.478;6.158;2024-03-29T03:30:20;8.10;99.90
51500;DHT22;39101;53.478;6.158;2024-03-29T03:32:47;8.10;99.90
51500;DHT22;39101;53.478;6.158;2024-03-29T03:35:13;8.10;99.90
51500;DHT22;39101;53.478;6.158;2024-03-29T03:37:40;8.10;99.90
51500;DHT22;39101;53.478;6.158;2024-03-29T03:40:06;8.10;99.90
51500;DHT22;39101;53.478;6.158;2024-03-29T03:42:32;8.10;99.90
51500;DHT22;39101;53.478;6.158;2024-03-29T03:44:58;8.10;99.90
51500;DHT22;39101;53.478;6.158;2024-03-29T03:47:24;8.10;99.90
51500;DHT22;39101;53.478;6.158;2024-03-29T03:49:50;8.20;99.90
51500;DHT22;39101;53.478;6.158;2024-03-29T03:52:15;8.20;99.90
51500;DHT22;39101;53.478;6.158;2024-03-29T03:54:41;8.20;99.90
51500;DHT22;39101;53.478;6.158;2024-03-29T03:57:07;8.10;99.90
51500;DHT22;39101;53.478;6.158;2024-03-29T03:59:32;8.20;99.90
51500;DHT22;39101;53.478;6.158;2024-03-29T04:01:58;8.20;99.90
51500;DHT22;39101;53.478;6.158;2024-03-29T04:04:24;8.20;99.90
51500;DHT22;39101;53.478;6.158;2024-03-29T04:06:49;8.20;99.90
51500;DHT22;39101;53.478;6.158;2024-03-29T04:09:15;8.20;99.90
51500;DHT22;39101;53.478;6.158;2024-03-29T04:11:42;8.20;99.90
51500;DHT22;39101;53.478;6.158;2024-03-29T04:14:07;8.20;99.90
51500;DHT22;39101;53.478;6.158;2024-03-29T04:16:33;8.20;99.90
51500;DHT22;39101;53.478;6.158;2024-03-29T04:18:59;8.20;99.90
51500;DHT22;39101;53.478;6.158;2024-03-29T04:21:24;8.20;99.90
51500;DHT22;39101;53.478;6.158;2024-03-29T04:23:50;8.20;99.90
51500;DHT22;39101;53.478;6.158;2024-03-29T04:26:16;8.20;99.90
51500;DHT22;39101;53.478;6.158;2024-03-29T04:28:41;8.10;99.90
51500;DHT22;39101;53.478;6.158;2024-03-29T04:31:07;8.20;99.90
51500;DHT22;39101;53.478;6.158;2024-03-29T04:33:33;8.20;99.90
51500;DHT22;39101;53.478;6.158;2024-03-29T04:36:00;8.20;99.90
51500;DHT22;39101;53.478;6.158;2024-03-29T04:38:30;8.20;99.90
51500;DHT22;39101;53.478;6.158;2024-03-29T04:40:58;8.20;99.90
51500;DHT22;39101;53.478;6.158;2024-03-29T04:43:28;8.20;99.90
51500;DHT22;39101;53.478;6.158;2024-03-29T04:46:12;8.20;99.90
51500;DHT22;39101;53.478;6.158;2024-03-29T04:48:39;8.30;99.90
51500;DHT22;39101;53.478;6.158;2024-03-29T04:51:05;8.20;99.90
51500;DHT22;39101;53.478;6.158;2024-03-29T04:53:31;8.20;99.90
51500;DHT22;39101;53.478;6.158;2024-03-29T04:55:58;8.20;99.90
51500;DHT22;39101;53.478;6.158;2024-03-29T04:58:25;8.20;99.90
51500;DHT22;39101;53.478;6.158;2024-03-29T05:00:52;8.20;99.90
51500;DHT22;39101;53.478;6.158;2024-03-29T05:03:19;8.20;99.90
51500;DHT22;39101;53.478;6.158;2024-03-29T05:05:45;8.20;99.90
51500;DHT22;39101;53.478;6.158;2024-03-29T05:08:11;8.20;99.90
51500;DHT22;39101;53.478;6.158;2024-03-29T05:10:38;8.20;99.90
51500;DHT22;39101;53.478;6.158;2024-03-29T05:13:23;8.10;99.90
51500;DHT22;39101;53.478;6.158;2024-03-29T05:15:50;8.20;99.90
51500;DHT22;39101;53.478;6.158;2024-03-29T05:18:18;8.20;99.90
51500;DHT22;39101;53.478;6.158;2024-03-29T05:20:43;8.20;99.90
51500;DHT22;39101;53.478;6.158;2024-03-29T05:23:14;8.30;99.90
51500;DHT22;39101;53.478;6.158;2024-03-29T05:25:40;8.30;99.90
51500;DHT22;39101;53.478;6.158;2024-03-29T05:28:09;8.30;99.90
51500;DHT22;39101;53.478;6.158;2024-03-29T05:30:36;8.40;99.90
51500;DHT22;39101;53.478;6.158;2024-03-29T05:33:03;8.40;99.90
51500;DHT22;39101;53.478;6.158;2024-03-29T05:35:31;8.40;99.90
51500;DHT22;39101;53.478;6.158;2024-03-29T05:37:57;8.30;99.90
51500;DHT22;39101;53.478;6.158;2024-03-29T05:40:23;8.30;99.90
51500;DHT22;39101;53.478;6.158;2024-03-29T05:42:53;8.30;99.90
51500;DHT22;39101;53.478;6.158;2024-03-29T05:45:37;8.30;99.90
51500;DHT22;39101;53.478;6.158;2024-03-29T05:48:03;8.20;99.90
51500;DHT22;39101;53.478;6.158;2024-03-29T05:50:30;8.30;99.90
51500;DHT22;39101;53.478;6.158;2024-03-29T05:53:08;8.30;99.90
51500;DHT22;39101;53.478;6.158;2024-03-29T05:55:34;8.20;99.90
51500;DHT22;39101;53.478;6.158;2024-03-29T05:57:59;8.30;99.90
51500;DHT22;39101;53.478;6.158;2024-03-29T06:00:25;8.20;99.90
51500;DHT22;39101;53.478;6.158;2024-03-29T06:02:51;8.20;99.90
51500;DHT22;39101;53.478;6.158;2024-03-29T06:05:18;8.20;99.90
51500;DHT22;39101;53.478;6.158;2024-03-29T06:07:45;8.20;99.90
51500;DHT22;39101;53.478;6.158;2024-03-29T06:10:11;8.20;99.90
51500;DHT22;39101;53.478;6.158;2024-03-29T06:12:40;8.20;99.90
51500;DHT22;39101;53.478;6.158;2024-03-29T06:15:06;8.20;99.90
51500;DHT22;39101;53.478;6.158;2024-03-29T06:17:50;8.20;99.90
51500;DHT22;39101;53.478;6.158;2024-03-29T06:20:16;8.20;99.90
51500;DHT22;39101;53.478;6.158;2024-03-29T06:22:42;8.20;99.90
51500;DHT22;39101;53.478;6.158;2024-03-29T06:25:08;8.20;99.90
51500;DHT22;39101;53.478;6.158;2024-03-29T06:27:36;8.20;99.90
51500;DHT22;39101;53.478;6.158;2024-03-29T06:30:03;8.30;99.90
51500;DHT22;39101;53.478;6.158;2024-03-29T06:32:48;8.30;99.90
51500;DHT22;39101;53.478;6.158;2024-03-29T06:35:13;8.30;99.90
51500;DHT22;39101;53.478;6.158;2024-03-29T06:37:39;8.30;99.90
51500;DHT22;39101;53.478;6.158;2024-03-29T06:40:06;8.30;99.90
51500;DHT22;39101;53.478;6.158;2024-03-29T06:42:33;8.30;99.90
51500;DHT22;39101;53.478;6.158;2024-03-29T06:45:01;8.30;99.90
51500;DHT22;39101;53.478;6.158;2024-03-29T06:47:31;8.40;99.90
51500;DHT22;39101;53.478;6.158;2024-03-29T06:49:57;8.40;99.90
51500;DHT22;39101;53.478;6.158;2024-03-29T06:52:22;8.40;99.90
51500;DHT22;39101;53.478;6.158;2024-03-29T06:54:49;8.40;99.90
51500;DHT22;39101;53.478;6.158;2024-03-29T06:57:15;8.50;99.90
51500;DHT22;39101;53.478;6.158;2024-03-29T06:59:46;8.50;99.90
51500;DHT22;39101;53.478;6.158;2024-03-29T07:02:13;8.50;99.90
51500;DHT22;39101;53.478;6.158;2024-03-29T07:04:39;8.50;99.90
51500;DHT22;39101;53.478;6.158;2024-03-29T07:07:05;8.60;99.90
51500;DHT22;39101;53.478;6.158;2024-03-29T07:09:33;8.70;99.90
51500;DHT22;39101;53.478;6.158;2024-03-29T07:11:59;8.70;99.90
51500;DHT22;39101;53.478;6.158;2024-03-29T07:14:26;8.70;99.90
51500;DHT22;39101;53.478;6.158;2024-03-29T07:16:53;8.70;99.90
51500;DHT22;39101;53.478;6.158;2024-03-29T07:19:20;8.70;99.90
51500;DHT22;39101;53.478;6.158;2024-03-29T07:21:49;8.80;99.90
51500;DHT22;39101;53.478;6.158;2024-03-29T07:24:19;8.80;99.90
51500;DHT22;39101;53.478;6.158;2024-03-29T07:26:46;8.80;99.90
51500;DHT22;39101;53.478;6.158;2024-03-29T07:29:14;8.70;99.90
51500;DHT22;39101;53.478;6.158;2024-03-29T07:31:40;8.80;99.90
51500;DHT22;39101;53.478;6.158;2024-03-29T07:34:06;8.90;99.90
51500;DHT22;39101;53.478;6.158;2024-03-29T07:36:31;8.90;99.90
51500;DHT22;39101;53.478;6.158;2024-03-29T07:39:01;8.90;99.90
51500;DHT22;39101;53.478;6.158;2024-03-29T07:41:28;9.00;99.90
51500;DHT22;39101;53.478;6.158;2024-03-29T07:44:00;9.00;99.90
51500;DHT22;39101;53.478;6.158;2024-03-29T07:46:36;9.00;99.90
51500;DHT22;39101;53.478;6.158;2024-03-29T07:49:06;9.00;99.90
51500;DHT22;39101;53.478;6.158;2024-03-29T07:51:31;9.10;99.90
51500;DHT22;39101;53.478;6.158;2024-03-29T07:53:57;9.10;99.90
51500;DHT22;39101;53.478;6.158;2024-03-29T07:56:23;9.20;99.90
51500;DHT22;39101;53.478;6.158;2024-03-29T07:58:55;9.20;99.90
51500;DHT22;39101;53.478;6.158;2024-03-29T08:01:24;9.20;99.90
51500;DHT22;39101;53.478;6.158;2024-03-29T08:03:51;9.30;99.90
51500;DHT22;39101;53.478;6.158;2024-03-29T08:06:19;9.30;99.90
51500;DHT22;39101;53.478;6.158;2024-03-29T08:08:45;9.40;99.90
51500;DHT22;39101;53.478;6.158;2024-03-29T08:11:11;9.30;99.90
51500;DHT22;39101;53.478;6.158;2024-03-29T08:13:38;9.40;99.90
51500;DHT22;39101;53.478;6.158;2024-03-29T08:16:05;9.40;99.90
51500;DHT22;39101;53.478;6.158;2024-03-29T08:18:31;9.40;99.90
51500;DHT22;39101;53.478;6.158;2024-03-29T08:20:57;9.30;99.90
51500;DHT22;39101;53.478;6.158;2024-03-29T08:23:26;9.40;99.90
51500;DHT22;39101;53.478;6.158;2024-03-29T08:25:52;9.40;99.90
51500;DHT22;39101;53.478;6.158;2024-03-29T08:28:21;9.40;99.90
51500;DHT22;39101;53.478;6.158;2024-03-29T08:30:58;9.50;99.90
51500;DHT22;39101;53.478;6.158;2024-03-29T08:33:24;9.60;99.90
51500;DHT22;39101;53.478;6.158;2024-03-29T08:35:50;9.70;99.90
51500;DHT22;39101;53.478;6.158;2024-03-29T08:38:16;9.80;99.90
51500;DHT22;39101;53.478;6.158;2024-03-29T08:40:41;9.80;99.90
51500;DHT22;39101;53.478;6.158;2024-03-29T08:43:09;10.00;99.90
51500;DHT22;39101;53.478;6.158;2024-03-29T08:45:35;10.10;99.90
51500;DHT22;39101;53.478;6.158;2024-03-29T08:48:16;10.10;99.90
51500;DHT22;39101;53.478;6.158;2024-03-29T08:50:42;10.20;99.90
51500;DHT22;39101;53.478;6.158;2024-03-29T08:53:08;10.30;99.90
51500;DHT22;39101;53.478;6.158;2024-03-29T08:55:34;10.30;99.90
51500;DHT22;39101;53.478;6.158;2024-03-29T08:58:08;10.40;99.90
51500;DHT22;39101;53.478;6.158;2024-03-29T09:00:37;10.60;99.90
51500;DHT22;39101;53.478;6.158;2024-03-29T09:03:03;10.70;99.90
51500;DHT22;39101;53.478;6.158;2024-03-29T09:05:29;10.70;99.90
51500;DHT22;39101;53.478;6.158;2024-03-29T09:07:55;10.80;99.90
51500;DHT22;39101;53.478;6.158;2024-03-29T09:10:24;10.80;99.90
51500;DHT22;39101;53.478;6.158;2024-03-29T09:12:50;10.90;99.90
51500;DHT22;39101;53.478;6.158;2024-03-29T09:15:16;11.00;99.90
51500;DHT22;39101;53.478;6.158;2024-03-29T09:17:46;11.00;99.90
51500;DHT22;39101;53.478;6.158;2024-03-29T09:20:12;11.10;99.90
51500;DHT22;39101;53.478;6.158;2024-03-29T09:22:38;11.10;99.90
51500;DHT22;39101;53.478;6.158;2024-03-29T09:25:04;11.10;99.90
51500;DHT22;39101;53.478;6.158;2024-03-29T09:27:30;11.10;99.90
51500;DHT22;39101;53.478;6.158;2024-03-29T09:29:59;11.10;99.90
51500;DHT22;39101;53.478;6.158;2024-03-29T09:32:25;11.20;99.90
51500;DHT22;39101;53.478;6.158;2024-03-29T09:34:51;11.30;99.90
51500;DHT22;39101;53.478;6.158;2024-03-29T09:37:17;11.30;99.90
51500;DHT22;39101;53.478;6.158;2024-03-29T09:39:43;11.40;99.90
51500;DHT22;39101;53.478;6.158;2024-03-29T09:42:15;11.50;99.90
51500;DHT22;39101;53.478;6.158;2024-03-29T09:44:44;11.60;99.90
51500;DHT22;39101;53.478;6.158;2024-03-29T09:47:15;11.70;99.90
51500;DHT22;39101;53.478;6.158;2024-03-29T09:49:44;11.70;99.90
51500;DHT22;39101;53.478;6.158;2024-03-29T09:52:13;11.80;99.90
51500;DHT22;39101;53.478;6.158;2024-03-29T09:54:40;11.80;99.90
51500;DHT22;39101;53.478;6.158;2024-03-29T09:57:06;11.90;99.90
51500;DHT22;39101;53.478;6.158;2024-03-29T09:59:33;12.00;99.90
51500;DHT22;39101;53.478;6.158;2024-03-29T10:02:02;12.00;99.90
51500;DHT22;39101;53.478;6.158;2024-03-29T10:04:31;12.00;99.90
51500;DHT22;39101;53.478;6.158;2024-03-29T10:06:58;12.00;99.90
51500;DHT22;39101;53.478;6.158;2024-03-29T10:09:25;11.90;99.90
51500;DHT22;39101;53.478;6.158;2024-03-29T10:11:55;11.90;99.90
51500;DHT22;39101;53.478;6.158;2024-03-29T10:14:20;11.90;99.90
51500;DHT22;39101;53.478;6.158;2024-03-29T10:16:50;12.00;99.90
51500;DHT22;39101;53.478;6.158;2024-03-29T10:19:16;12.00;99.90
51500;DHT22;39101;53.478;6.158;2024-03-29T10:21:42;11.90;99.90
51500;DHT22;39101;53.478;6.158;2024-03-29T10:24:12;11.80;99.90
51500;DHT22;39101;53.478;6.158;2024-03-29T10:26:40;11.80;99.90
51500;DHT22;39101;53.478;6.158;2024-03-29T10:29:06;11.90;99.90
51500;DHT22;39101;53.478;6.158;2024-03-29T10:31:35;12.00;99.90
51500;DHT22;39101;53.478;6.158;2024-03-29T10:34:04;12.00;99.90
51500;DHT22;39101;53.478;6.158;2024-03-29T10:36:35;12.10;99.90
51500;DHT22;39101;53.478;6.158;2024-03-29T10:39:10;12.10;99.90
51500;DHT22;39101;53.478;6.158;2024-03-29T10:41:46;12.00;99.90
51500;DHT22;39101;53.478;6.158;2024-03-29T10:44:13;12.00;99.90
51500;DHT22;39101;53.478;6.158;2024-03-29T10:46:40;11.90;99.90
51500;DHT22;39101;53.478;6.158;2024-03-29T10:49:14;11.80;99.90
51500;DHT22;39101;53.478;6.158;2024-03-29T10:51:43;11.80;99.90
51500;DHT22;39101;53.478;6.158;2024-03-29T10:54:11;11.90;99.90
51500;DHT22;39101;53.478;6.158;2024-03-29T10:56:38;11.90;99.90
51500;DHT22;39101;53.478;6.158;2024-03-29T10:59:12;12.20;99.90
51500;DHT22;39101;53.478;6.158;2024-03-29T11:01:52;12.30;99.90
51500;DHT22;39101;53.478;6.158;2024-03-29T11:04:25;12.30;99.90
51500;DHT22;39101;53.478;6.158;2024-03-29T11:07:06;12.30;99.90
51500;DHT22;39101;53.478;6.158;2024-03-29T11:09:56;12.50;99.90
51500;DHT22;39101;53.478;6.158;2024-03-29T11:12:24;12.50;99.90
51500;DHT22;39101;53.478;6.158;2024-03-29T11:14:59;12.50;99.90
51500;DHT22;39101;53.478;6.158;2024-03-29T11:17:29;12.50;99.90
51500;DHT22;39101;53.478;6.158;2024-03-29T11:19:58;12.60;99.90
51500;DHT22;39101;53.478;6.158;2024-03-29T11:22:25;12.70;99.90
51500;DHT22;39101;53.478;6.158;2024-03-29T11:24:51;12.60;99.90
51500;DHT22;39101;53.478;6.158;2024-03-29T11:27:17;12.50;99.90
51500;DHT22;39101;53.478;6.158;2024-03-29T11:29:52;12.40;99.90
51500;DHT22;39101;53.478;6.158;2024-03-29T11:32:37;12.40;99.90
51500;DHT22;39101;53.478;6.158;2024-03-29T11:35:05;12.40;99.90
51500;DHT22;39101;53.478;6.158;2024-03-29T11:37:31;12.40;99.90
51500;DHT22;39101;53.478;6.158;2024-03-29T11:40:00;12.50;99.90
51500;DHT22;39101;53.478;6.158;2024-03-29T11:42:46;12.60;99.90
51500;DHT22;39101;53.478;6.158;2024-03-29T11:45:12;12.60;99.90
51500;DHT22;39101;53.478;6.158;2024-03-29T11:47:40;12.80;99.90
51500;DHT22;39101;53.478;6.158;2024-03-29T11:50:09;12.80;99.90
51500;DHT22;39101;53.478;6.158;2024-03-29T11:52:39;12.80;99.90
51500;DHT22;39101;53.478;6.158;2024-03-29T11:55:05;12.70;99.90
51500;DHT22;39101;53.478;6.158;2024-03-29T11:57:32;12.60;99.90
51500;DHT22;39101;53.478;6.158;2024-03-29T11:59:58;12.50;99.90
51500;DHT22;39101;53.478;6.158;2024-03-29T12:02:25;12.40;99.90
51500;DHT22;39101;53.478;6.158;2024-03-29T12:04:50;12.20;99.90
51500;DHT22;39101;53.478;6.158;2024-03-29T12:07:16;12.20;99.90
51500;DHT22;39101;53.478;6.158;2024-03-29T12:09:42;12.10;99.90
51500;DHT22;39101;53.478;6.158;2024-03-29T12:12:08;12.00;99.90
51500;DHT22;39101;53.478;6.158;2024-03-29T12:14:36;11.90;99.90
51500;DHT22;39101;53.478;6.158;2024-03-29T12:17:11;11.90;99.90
51500;DHT22;39101;53.478;6.158;2024-03-29T12:19:38;11.90;99.90
51500;DHT22;39101;53.478;6.158;2024-03-29T12:22:08;11.80;99.90
51500;DHT22;39101;53.478;6.158;2024-03-29T12:24:37;11.80;99.90
51500;DHT22;39101;53.478;6.158;2024-03-29T12:27:03;11.80;99.90
51500;DHT22;39101;53.478;6.158;2024-03-29T12:29:30;11.90;99.90
51500;DHT22;39101;53.478;6.158;2024-03-29T12:32:00;12.00;99.90
51500;DHT22;39101;53.478;6.158;2024-03-29T12:34:26;12.00;99.90
51500;DHT22;39101;53.478;6.158;2024-03-29T12:36:53;12.20;99.90
51500;DHT22;39101;53.478;6.158;2024-03-29T12:39:19;12.30;99.90
51500;DHT22;39101;53.478;6.158;2024-03-29T12:41:48;12.30;99.90
51500;DHT22;39101;53.478;6.158;2024-03-29T12:44:14;12.40;99.90
51500;DHT22;39101;53.478;6.158;2024-03-29T12:46:41;12.40;99.90
51500;DHT22;39101;53.478;6.158;2024-03-29T12:49:10;12.40;99.90
51500;DHT22;39101;53.478;6.158;2024-03-29T12:51:40;12.50;99.90
51500;DHT22;39101;53.478;6.158;2024-03-29T12:54:05;12.50;99.90
51500;DHT22;39101;53.478;6.158;2024-03-29T12:56:31;12.50;99.90
51500;DHT22;39101;53.478;6.158;2024-03-29T12:58:57;12.60;99.90
51500;DHT22;39101;53.478;6.158;2024-03-29T13:01:23;12.60;99.90
51500;DHT22;39101;53.478;6.158;2024-03-29T13:03:50;12.60;99.90
51500;DHT22;39101;53.478;6.158;2024-03-29T13:06:18;12.70;99.90
51500;DHT22;39101;53.478;6.158;2024-03-29T13:08:44;12.80;99.90
51500;DHT22;39101;53.478;6.158;2024-03-29T13:11:10;12.90;99.90
51500;DHT22;39101;53.478;6.158;2024-03-29T13:13:36;12.90;99.90
51500;DHT22;39101;53.478;6.158;2024-03-29T13:16:02;12.80;99.90
51500;DHT22;39101;53.478;6.158;2024-03-29T13:18:31;12.80;99.90
51500;DHT22;39101;53.478;6.158;2024-03-29T13:20:56;12.80;99.90
51500;DHT22;39101;53.478;6.158;2024-03-29T13:23:26;12.90;99.90
51500;DHT22;39101;53.478;6.158;2024-03-29T13:25:51;12.90;99.90
51500;DHT22;39101;53.478;6.158;2024-03-29T13:28:22;13.00;99.90
51500;DHT22;39101;53.478;6.158;2024-03-29T13:30:48;13.20;99.90
51500;DHT22;39101;53.478;6.158;2024-03-29T13:33:16;13.20;99.90
51500;DHT22;39101;53.478;6.158;2024-03-29T13:35:43;13.20;99.90
51500;DHT22;39101;53.478;6.158;2024-03-29T13:38:09;13.10;99.90
51500;DHT22;39101;53.478;6.158;2024-03-29T13:40:38;13.00;99.90
51500;DHT22;39101;53.478;6.158;2024-03-29T13:43:05;13.00;99.90
51500;DHT22;39101;53.478;6.158;2024-03-29T13:45:32;13.00;99.90
51500;DHT22;39101;53.478;6.158;2024-03-29T13:47:58;13.00;99.90
51500;DHT22;39101;53.478;6.158;2024-03-29T13:50:24;12.90;99.90
51500;DHT22;39101;53.478;6.158;2024-03-29T13:52:49;12.80;99.90
51500;DHT22;39101;53.478;6.158;2024-03-29T13:55:17;13.00;99.90
51500;DHT22;39101;53.478;6.158;2024-03-29T13:57:42;12.90;99.90
51500;DHT22;39101;53.478;6.158;2024-03-29T14:00:10;12.90;99.90
51500;DHT22;39101;53.478;6.158;2024-03-29T14:02:43;13.00;99.90
51500;DHT22;39101;53.478;6.158;2024-03-29T14:05:09;13.20;99.90
51500;DHT22;39101;53.478;6.158;2024-03-29T14:07:34;13.30;99.90
51500;DHT22;39101;53.478;6.158;2024-03-29T14:10:00;13.30;99.90
51500;DHT22;39101;53.478;6.158;2024-03-29T14:12:30;13.30;99.90
51500;DHT22;39101;53.478;6.158;2024-03-29T14:14:55;13.40;99.90
51500;DHT22;39101;53.478;6.158;2024-03-29T14:17:22;13.40;99.90
51500;DHT22;39101;53.478;6.158;2024-03-29T14:19:48;13.30;99.90
51500;DHT22;39101;53.478;6.158;2024-03-29T14:22:15;13.40;99.90
51500;DHT22;39101;53.478;6.158;2024-03-29T14:24:42;13.70;99.90
51500;DHT22;39101;53.478;6.158;2024-03-29T14:27:08;13.80;99.90
51500;DHT22;39101;53.478;6.158;2024-03-29T14:29:34;13.80;99.90
51500;DHT22;39101;53.478;6.158;2024-03-29T14:32:00;14.00;99.90
51500;DHT22;39101;53.478;6.158;2024-03-29T14:34:26;14.10;99.90
51500;DHT22;39101;53.478;6.158;2024-03-29T14:36:52;14.10;99.90
51500;DHT22;39101;53.478;6.158;2024-03-29T14:39:19;14.00;99.90
51500;DHT22;39101;53.478;6.158;2024-03-29T14:41:50;14.00;99.90
51500;DHT22;39101;53.478;6.158;2024-03-29T14:44:17;13.90;99.90
51500;DHT22;39101;53.478;6.158;2024-03-29T14:46:49;13.90;99.90
51500;DHT22;39101;53.478;6.158;2024-03-29T14:49:16;13.90;99.90
51500;DHT22;39101;53.478;6.158;2024-03-29T14:51:43;13.80;99.90
51500;DHT22;39101;53.478;6.158;2024-03-29T14:54:09;13.70;99.90
51500;DHT22;39101;53.478;6.158;2024-03-29T14:56:36;13.70;99.90
51500;DHT22;39101;53.478;6.158;2024-03-29T14:59:06;13.80;99.90
51500;DHT22;39101;53.478;6.158;2024-03-29T15:01:36;13.90;99.90
51500;DHT22;39101;53.478;6.158;2024-03-29T15:04:03;14.00;99.90
51500;DHT22;39101;53.478;6.158;2024-03-29T15:06:30;13.90;99.90
51500;DHT22;39101;53.478;6.158;2024-03-29T15:08:56;14.10;99.90
51500;DHT22;39101;53.478;6.158;2024-03-29T15:11:25;14.10;99.90
51500;DHT22;39101;53.478;6.158;2024-03-29T15:13:50;14.10;99.90
51500;DHT22;39101;53.478;6.158;2024-03-29T15:16:16;14.10;99.90
51500;DHT22;39101;53.478;6.158;2024-03-29T15:18:45;14.00;99.90
51500;DHT22;39101;53.478;6.158;2024-03-29T15:21:11;13.90;99.90
51500;DHT22;39101;53.478;6.158;2024-03-29T15:23:37;13.80;99.90
51500;DHT22;39101;53.478;6.158;2024-03-29T15:26:04;13.80;99.90
51500;DHT22;39101;53.478;6.158;2024-03-29T15:28:31;14.00;99.90
51500;DHT22;39101;53.478;6.158;2024-03-29T15:31:17;14.30;99.90
51500;DHT22;39101;53.478;6.158;2024-03-29T15:33:52;14.40;99.90
51500;DHT22;39101;53.478;6.158;2024-03-29T15:36:18;14.50;99.90
51500;DHT22;39101;53.478;6.158;2024-03-29T15:38:45;14.60;99.90
51500;DHT22;39101;53.478;6.158;2024-03-29T15:41:11;15.20;99.90
51500;DHT22;39101;53.478;6.158;2024-03-29T15:43:38;15.80;99.90